Queen City, Ohio
Current Conditions -  °F | °C
As of 2:18 AM on Sunday 23 Nov 2014 (Local Time) from KI69 Reporting Station
Overcast Overcast  
Wind Chill: 54°   Ceiling: 8500
Heat Index: 54°   Visibility: 10mi
Dew Point: 36°   Wind: 6mph
Humidity: 51%   Direction: 200°SSW
Pressure: 30.05"   Gusts: NA
Location:  39.0938°N, 84.574°W
Report Text: KI69 230718Z AUTO 20005KT 10SM SCT070 OVC085 12/02 A3005 RMK AO1
Loading
Personal Weather Stations






























Interactive Weather Map New forecast layout! Learn more

10-Day Weather Forecast

Advertisements
Track Severe Weather on mobile